Time;durP1;ratioP1;P1;durP2;ratioP2;P2;SDS_P1;SDS_P2;PMS_P1;PMS_P2;Temp;Humidity;BMP_temperature;BMP_pressure;BME280_temperature;BME280_humidity;BME280_pressure;Samples;Min_cycle;Max_cycle;Signal;HPM_P1;HPM_P2
2023/07/09 00:02:23;;;;;;;8.38;5.85;;;22.40;60.80;;;;;;4985000;28;20046;-72
2023/07/09 00:04:50;;;;;;;11.80;7.20;;;22.40;60.90;;;;;;4993590;28;20058;-73
2023/07/09 00:07:22;;;;;;;10.63;6.97;;;22.40;61.10;;;;;;4995111;28;20381;-71
2023/07/09 00:09:49;;;;;;;9.90;6.72;;;22.20;61.50;;;;;;4991130;28;20397;-72
2023/07/09 00:12:18;;;;;;;9.98;6.68;;;22.20;61.80;;;;;;4993350;28;20053;-73
2023/07/09 00:14:45;;;;;;;10.50;7.13;;;22.20;61.70;;;;;;4997000;28;20087;-72
2023/07/09 00:17:23;;;;;;;10.35;6.40;;;22.20;61.80;;;;;;4997066;28;20057;-72
2023/07/09 00:19:51;;;;;;;11.13;7.45;;;22.20;61.50;;;;;;4997650;28;20061;-73
2023/07/09 00:22:19;;;;;;;11.27;6.90;;;22.20;61.30;;;;;;4997784;28;20047;-69
2023/07/09 00:24:50;;;;;;;11.40;6.97;;;22.20;61.20;;;;;;4991456;28;20046;-69
2023/07/09 00:27:19;;;;;;;10.73;6.72;;;22.20;61.20;;;;;;4994584;28;20054;-68
2023/07/09 00:29:46;;;;;;;11.07;6.85;;;22.30;60.70;;;;;;4998014;28;20049;-67
2023/07/09 00:32:16;;;;;;;9.50;6.82;;;22.20;60.70;;;;;;4999059;28;20054;-69
2023/07/09 00:34:48;;;;;;;9.13;6.60;;;22.10;60.90;;;;;;4983834;28;20058;-70
2023/07/09 00:37:16;;;;;;;10.10;7.13;;;22.10;61.00;;;;;;4976166;28;20514;-73
2023/07/09 00:39:44;;;;;;;9.57;6.95;;;22.10;61.20;;;;;;4998033;28;20050;-72
2023/07/09 00:42:19;;;;;;;10.18;7.18;;;22.00;61.60;;;;;;4990586;28;20050;-73
2023/07/09 00:44:46;;;;;;;10.05;7.03;;;22.00;61.70;;;;;;4974090;28;20455;-73
2023/07/09 00:47:21;;;;;;;9.27;6.13;;;21.90;61.90;;;;;;4978601;28;20046;-73
2023/07/09 00:50:00;;;;;;;8.73;6.80;;;21.90;62.10;;;;;;4973682;28;20134;-73
2023/07/09 00:52:33;;;;;;;;;;;21.80;62.40;;;;;;4980117;28;20051;-69
2023/07/09 00:55:07;;;;;;;9.70;6.65;;;21.70;62.70;;;;;;4976424;28;19965;-67
2023/07/09 00:57:37;;;;;;;9.50;6.07;;;21.60;63.10;;;;;;4967377;28;20426;-65
2023/07/09 01:00:10;;;;;;;9.80;6.28;;;21.60;63.20;;;;;;4998159;28;20128;-65
2023/07/09 01:02:44;;;;;;;10.73;7.35;;;21.60;63.50;;;;;;4977672;28;20051;-64
2023/07/09 01:05:13;;;;;;;9.77;6.22;;;21.50;63.80;;;;;;4973061;28;20043;-66
2023/07/09 01:07:41;;;;;;;8.98;6.32;;;21.50;63.90;;;;;;4980763;28;20050;-63
2023/07/09 01:10:09;;;;;;;11.50;6.93;;;21.40;63.90;;;;;;4999564;28;20077;-64
2023/07/09 01:12:37;;;;;;;9.13;6.65;;;21.30;64.10;;;;;;4977661;28;20142;-64
2023/07/09 01:15:07;;;;;;;11.80;6.55;;;21.30;64.20;;;;;;4986309;28;20062;-64
2023/07/09 01:17:34;;;;;;;;;;;21.30;64.30;;;;;;4978441;28;20508;-63
2023/07/09 01:20:03;;;;;;;9.93;6.53;;;21.20;64.60;;;;;;4983545;28;19929;-63
2023/07/09 01:22:32;;;;;;;11.55;7.65;;;21.20;64.70;;;;;;4998128;28;20125;-72
2023/07/09 01:25:02;;;;;;;9.50;7.07;;;21.20;64.60;;;;;;4995796;28;20399;-71
2023/07/09 01:27:30;;;;;;;;;;;21.20;64.70;;;;;;4992452;28;20058;-71
2023/07/09 01:29:59;;;;;;;9.80;6.35;;;21.20;64.80;;;;;;5000060;28;19930;-72
2023/07/09 01:32:26;;;;;;;9.82;6.72;;;21.10;64.80;;;;;;4997888;28;20049;-61
2023/07/09 01:34:56;;;;;;;10.73;6.90;;;21.10;65.00;;;;;;4999082;28;20061;-61
2023/07/09 01:37:25;;;;;;;10.20;6.28;;;21.00;65.40;;;;;;4989944;28;20211;-61
2023/07/09 01:39:54;;;;;;;9.02;5.80;;;20.90;65.70;;;;;;4982459;28;20050;-61
2023/07/09 01:42:23;;;;;;;8.77;6.30;;;21.00;65.70;;;;;;4980699;28;20493;-61
2023/07/09 01:44:51;;;;;;;;;;;20.90;65.90;;;;;;4996072;28;20050;-61
2023/07/09 01:47:18;;;;;;;9.77;5.40;;;20.90;65.90;;;;;;4994759;28;19929;-72
2023/07/09 01:49:46;;;;;;;8.07;5.50;;;20.90;66.00;;;;;;4999062;28;20132;-71
2023/07/09 01:52:16;;;;;;;8.50;5.65;;;20.90;66.10;;;;;;4978740;28;20121;-68
2023/07/09 01:54:49;;;;;;;7.85;5.63;;;20.80;66.30;;;;;;4976964;28;20053;-67
2023/07/09 01:57:23;;;;;;;9.65;6.10;;;20.90;66.00;;;;;;4960470;28;20130;-69
2023/07/09 01:59:51;;;;;;;9.02;6.15;;;20.80;66.10;;;;;;4978524;28;20058;-68
2023/07/09 02:02:21;;;;;;;9.07;6.30;;;20.70;66.20;;;;;;4979581;28;20065;-64
2023/07/09 02:04:50;;;;;;;8.23;6.00;;;20.70;66.50;;;;;;4998718;28;20056;-64
2023/07/09 02:07:18;;;;;;;9.27;6.32;;;20.70;66.60;;;;;;4976624;28;20064;-64
2023/07/09 02:09:45;;;;;;;9.85;6.40;;;20.70;66.70;;;;;;4982482;28;20162;-64
2023/07/09 02:12:14;;;;;;;11.70;6.82;;;20.60;66.80;;;;;;4996226;28;20057;-65
2023/07/09 02:14:43;;;;;;;10.25;7.13;;;20.60;66.80;;;;;;4997727;28;20078;-64
2023/07/09 02:17:11;;;;;;;;;;;20.60;66.90;;;;;;4973846;28;20039;-72
2023/07/09 02:19:38;;;;;;;10.43;6.60;;;20.60;66.60;;;;;;4986207;28;20067;-72
2023/07/09 02:22:06;;;;;;;9.40;6.30;;;20.60;66.60;;;;;;4997159;28;20046;-62
2023/07/09 02:24:34;;;;;;;10.40;7.20;;;20.60;66.70;;;;;;4990401;28;20049;-60
2023/07/09 02:27:03;;;;;;;10.13;6.32;;;20.50;66.80;;;;;;5000167;28;20054;-64
2023/07/09 02:29:30;;;;;;;;;;;20.40;67.00;;;;;;4998213;28;20408;-63
2023/07/09 02:32:00;;;;;;;8.73;5.68;;;20.40;67.20;;;;;;4996605;28;20008;-74
2023/07/09 02:34:28;;;;;;;9.57;5.97;;;20.30;67.30;;;;;;4994869;28;20052;-73
2023/07/09 02:36:56;;;;;;;7.30;5.47;;;20.30;67.50;;;;;;4980873;28;20057;-63
2023/07/09 02:39:24;;;;;;;10.05;5.82;;;20.20;67.60;;;;;;4997362;28;20493;-63
2023/07/09 02:41:52;;;;;;;8.55;5.57;;;20.20;67.70;;;;;;4993779;28;20050;-71
2023/07/09 02:44:19;;;;;;;10.70;5.43;;;20.20;67.90;;;;;;4983116;28;20076;-71
2023/07/09 02:46:46;;;;;;;9.15;5.88;;;20.20;67.90;;;;;;4981197;28;20485;-73
2023/07/09 02:49:16;;;;;;;9.90;5.57;;;20.20;68.10;;;;;;4995938;28;20635;-72
2023/07/09 02:51:43;;;;;;;9.13;5.60;;;20.20;68.00;;;;;;4993700;28;20069;-71
2023/07/09 02:54:09;;;;;;;8.20;6.00;;;20.10;68.10;;;;;;4997857;28;20165;-71
2023/07/09 02:56:36;;;;;;;8.73;5.78;;;20.10;68.30;;;;;;4994988;28;20050;-71
2023/07/09 02:59:03;;;;;;;8.90;5.88;;;20.10;68.30;;;;;;4997615;28;20052;-71
2023/07/09 03:01:32;;;;;;;12.68;7.05;;;20.10;68.30;;;;;;4995745;28;20133;-71
2023/07/09 03:04:01;;;;;;;7.93;5.85;;;20.10;68.30;;;;;;4976310;28;20081;-71
2023/07/09 03:06:33;;;;;;;8.73;6.22;;;20.00;68.30;;;;;;4995023;28;20520;-71
2023/07/09 03:09:00;;;;;;;9.65;6.82;;;20.00;68.40;;;;;;4996771;28;20051;-71
2023/07/09 03:11:30;;;;;;;8.30;5.95;;;19.90;68.40;;;;;;4996778;28;20042;-68
2023/07/09 03:13:56;;;;;;;9.40;6.20;;;20.00;68.60;;;;;;4997264;28;20057;-67
2023/07/09 03:16:23;;;;;;;8.60;6.15;;;19.90;68.60;;;;;;4996118;28;20056;-73
2023/07/09 03:18:50;;;;;;;8.77;5.80;;;19.90;68.70;;;;;;4997630;28;20129;-73
2023/07/09 03:21:17;;;;;;;7.97;5.68;;;19.90;68.70;;;;;;4993577;28;20133;-60
2023/07/09 03:23:46;;;;;;;9.98;6.18;;;19.90;68.80;;;;;;4998396;28;20050;-62
2023/07/09 03:26:16;;;;;;;10.65;6.30;;;19.80;68.70;;;;;;4974957;28;20127;-65
2023/07/09 03:28:43;;;;;;;10.45;6.53;;;19.90;68.70;;;;;;4998853;28;20135;-63
2023/07/09 03:31:10;;;;;;;10.93;6.63;;;19.80;68.70;;;;;;4996193;28;20557;-70
2023/07/09 03:33:37;;;;;;;9.65;6.80;;;19.70;68.60;;;;;;4966069;28;20086;-69
2023/07/09 03:36:05;;;;;;;9.27;6.45;;;19.70;68.60;;;;;;4964232;28;20057;-65
2023/07/09 03:38:32;;;;;;;9.80;7.07;;;19.70;68.50;;;;;;4963137;28;20051;-66
2023/07/09 03:41:01;;;;;;;11.40;6.85;;;19.70;68.50;;;;;;4960984;28;20054;-67
2023/07/09 03:43:27;;;;;;;8.90;6.32;;;19.60;68.60;;;;;;4958528;28;20067;-69
2023/07/09 03:45:54;;;;;;;9.93;6.22;;;19.70;68.60;;;;;;4993243;28;20060;-72
2023/07/09 03:48:21;;;;;;;9.25;6.43;;;19.60;68.60;;;;;;4995675;28;20041;-73
2023/07/09 03:50:49;;;;;;;10.55;6.53;;;19.60;68.70;;;;;;4993981;28;20039;-69
2023/07/09 03:53:17;;;;;;;9.50;6.60;;;19.60;68.80;;;;;;4993887;28;20056;-68
2023/07/09 03:55:45;;;;;;;9.63;6.25;;;19.60;69.00;;;;;;4997361;28;20548;-67
2023/07/09 03:58:13;;;;;;;8.43;5.70;;;19.60;69.00;;;;;;5000072;28;20182;-67
2023/07/09 04:00:41;;;;;;;9.50;5.97;;;19.60;69.10;;;;;;4993345;28;20054;-72
2023/07/09 04:03:10;;;;;;;9.57;5.95;;;19.60;69.30;;;;;;5000979;28;20565;-73
2023/07/09 04:05:37;;;;;;;8.93;5.55;;;19.60;69.40;;;;;;4973721;28;20098;-73
2023/07/09 04:08:05;;;;;;;7.88;5.70;;;19.60;69.40;;;;;;4981281;28;20046;-72
2023/07/09 04:10:32;;;;;;;7.82;5.47;;;19.50;69.50;;;;;;4980149;28;20074;-61
2023/07/09 04:12:59;;;;;;;9.52;6.13;;;19.60;69.40;;;;;;4980559;28;20494;-60
2023/07/09 04:15:28;;;;;;;9.20;6.28;;;19.60;69.50;;;;;;4977628;28;20051;-66
2023/07/09 04:17:55;;;;;;;8.25;6.10;;;19.60;69.50;;;;;;4976937;28;20047;-66
2023/07/09 04:20:22;;;;;;;8.25;5.18;;;19.60;69.60;;;;;;4977322;28;20134;-67
2023/07/09 04:22:49;;;;;;;9.77;6.53;;;19.50;69.60;;;;;;4976158;28;20129;-67
2023/07/09 04:25:16;;;;;;;10.02;6.38;;;19.60;69.70;;;;;;4964718;28;20043;-67
2023/07/09 04:27:43;;;;;;;10.20;6.35;;;19.50;69.60;;;;;;4979999;28;20049;-67
2023/07/09 04:30:12;;;;;;;10.65;6.57;;;19.60;69.60;;;;;;4998260;28;20053;-66
2023/07/09 04:32:43;;;;;;;10.33;6.40;;;19.60;69.50;;;;;;5000070;28;20135;-68
2023/07/09 04:35:11;;;;;;;9.55;5.25;;;19.60;69.60;;;;;;4997908;28;20055;-67
2023/07/09 04:37:38;;;;;;;7.60;5.50;;;19.60;69.70;;;;;;4999713;28;20439;-67
2023/07/09 04:40:10;;;;;;;8.68;6.10;;;19.60;69.50;;;;;;4992928;28;20138;-67
2023/07/09 04:42:39;;;;;;;8.60;5.70;;;19.60;69.60;;;;;;4980968;28;20069;-67
2023/07/09 04:45:08;;;;;;;8.85;5.97;;;19.60;69.50;;;;;;4979824;28;20050;-68
2023/07/09 04:47:35;;;;;;;9.27;5.95;;;19.60;69.50;;;;;;4973247;28;20058;-68
2023/07/09 04:50:05;;;;;;;10.43;6.25;;;19.60;69.60;;;;;;4979743;28;20414;-68
2023/07/09 04:52:32;;;;;;;9.23;6.05;;;19.60;69.50;;;;;;4978425;28;20085;-68
2023/07/09 04:54:59;;;;;;;10.20;6.15;;;19.60;69.50;;;;;;4980603;28;20058;-68
2023/07/09 04:57:27;;;;;;;9.13;6.07;;;19.70;69.30;;;;;;4998641;28;20050;-68
2023/07/09 04:59:55;;;;;;;9.98;6.18;;;19.70;69.30;;;;;;4996810;28;20046;-67
2023/07/09 05:02:22;;;;;;;9.68;6.43;;;19.80;69.10;;;;;;4997748;28;20165;-67
2023/07/09 05:04:49;;;;;;;9.57;6.95;;;19.80;68.90;;;;;;4998524;28;20112;-67
2023/07/09 05:07:18;;;;;;;10.00;7.03;;;19.90;68.60;;;;;;4995922;28;20109;-68
2023/07/09 05:09:47;;;;;;;9.73;6.63;;;19.80;68.60;;;;;;4998379;28;20133;-68
2023/07/09 05:12:29;;;;;;;8.68;6.47;;;19.80;68.70;;;;;;4991685;28;20050;-66
2023/07/09 05:14:57;;;;;;;10.60;6.80;;;19.80;68.60;;;;;;4999138;28;20054;-67
2023/07/09 05:17:24;;;;;;;11.52;6.43;;;19.80;68.70;;;;;;5000788;28;20050;-68
2023/07/09 05:19:52;;;;;;;9.48;5.97;;;19.80;68.60;;;;;;4999783;28;20088;-67
2023/07/09 05:22:31;;;;;;;9.23;6.20;;;19.90;68.40;;;;;;4996391;28;20529;-67
2023/07/09 05:24:58;;;;;;;10.13;6.40;;;19.90;68.50;;;;;;4999974;28;20141;-67
2023/07/09 05:27:25;;;;;;;6.78;5.28;;;19.90;68.20;;;;;;4988522;28;20054;-67
2023/07/09 05:29:52;;;;;;;8.55;6.00;;;20.00;68.20;;;;;;4999717;28;20084;-67
2023/07/09 05:32:19;;;;;;;9.25;6.15;;;20.00;68.50;;;;;;4995907;28;20050;-67
2023/07/09 05:34:48;;;;;;;8.57;5.70;;;20.10;68.00;;;;;;4996902;28;20054;-68
2023/07/09 05:37:15;;;;;;;9.98;5.63;;;20.10;67.30;;;;;;4997594;28;20121;-68
2023/07/09 05:39:43;;;;;;;8.32;5.55;;;20.10;67.70;;;;;;4999229;28;20049;-67
2023/07/09 05:42:11;;;;;;;8.88;5.40;;;20.10;67.80;;;;;;4998294;28;20148;-68
2023/07/09 05:47:40;;;;;;;8.13;5.18;;;20.20;67.60;;;;;;4997054;28;20073;-66
2023/07/09 05:50:08;;;;;;;9.38;5.43;;;20.30;67.30;;;;;;4993983;28;20486;-67
2023/07/09 05:52:53;;;;;;;7.78;5.45;;;20.30;66.90;;;;;;4999869;28;20080;-67
2023/07/09 05:55:21;;;;;;;8.05;5.30;;;20.30;67.30;;;;;;4996248;28;20532;-67
2023/07/09 05:57:48;;;;;;;8.50;5.30;;;20.30;67.10;;;;;;4999933;28;20050;-68
2023/07/09 06:00:16;;;;;;;10.90;5.93;;;20.40;67.30;;;;;;4980617;28;20047;-67
2023/07/09 06:02:43;;;;;;;7.72;5.15;;;20.40;67.40;;;;;;4952706;28;20070;-67
2023/07/09 06:05:11;;;;;;;9.85;5.55;;;20.40;67.00;;;;;;4968416;28;20065;-68
2023/07/09 06:07:38;;;;;;;8.38;5.28;;;20.50;67.30;;;;;;4976620;28;20439;-74
2023/07/09 06:10:06;;;;;;;9.07;5.55;;;20.50;67.10;;;;;;4998828;28;20699;-73
2023/07/09 06:12:34;;;;;;;8.98;5.22;;;20.60;67.00;;;;;;4998054;28;20213;-67
2023/07/09 06:15:22;;;;;;;7.85;5.18;;;20.60;66.70;;;;;;4999156;28;20055;-67
2023/07/09 06:17:49;;;;;;;7.30;5.43;;;20.60;66.40;;;;;;4998596;28;20538;-67
2023/07/09 06:20:16;;;;;;;7.40;5.15;;;20.70;66.30;;;;;;4996214;28;20050;-66
2023/07/09 06:22:43;;;;;;;8.15;5.32;;;20.70;66.50;;;;;;4998302;28;20056;-66
2023/07/09 06:25:10;;;;;;;7.70;5.05;;;20.80;66.30;;;;;;4997688;28;20058;-67
2023/07/09 06:27:38;;;;;;;8.20;5.60;;;20.80;66.50;;;;;;4982380;28;20050;-68
2023/07/09 06:30:06;;;;;;;8.00;5.57;;;20.90;66.50;;;;;;4999142;28;20054;-69
2023/07/09 06:32:33;;;;;;;7.97;5.47;;;21.00;66.30;;;;;;4998505;28;20057;-72
2023/07/09 06:35:00;;;;;;;7.43;4.88;;;21.00;65.00;;;;;;4998387;28;20046;-72
2023/07/09 06:37:27;;;;;;;7.65;5.00;;;21.10;65.20;;;;;;4998273;28;20053;-73
2023/07/09 06:39:53;;;;;;;8.30;5.68;;;21.20;65.10;;;;;;5000518;28;20048;-74
2023/07/09 06:42:20;;;;;;;7.88;5.35;;;21.30;65.40;;;;;;4999995;28;20050;-68
2023/07/09 06:44:58;;;;;;;8.05;5.38;;;21.50;65.20;;;;;;4992582;28;20137;-68
2023/07/09 06:47:25;;;;;;;8.48;5.15;;;21.60;64.70;;;;;;4999315;28;20054;-69
2023/07/09 06:49:52;;;;;;;7.80;5.22;;;21.70;64.70;;;;;;4997039;28;20061;-69
2023/07/09 06:52:19;;;;;;;10.00;5.43;;;21.90;64.00;;;;;;4993227;28;20062;-67
2023/07/09 06:54:46;;;;;;;8.88;5.18;;;22.10;63.80;;;;;;4997057;28;20098;-68
2023/07/09 06:57:13;;;;;;;8.55;5.47;;;22.20;63.20;;;;;;4996942;28;20061;-62
2023/07/09 06:59:40;;;;;;;9.95;6.90;;;22.40;62.70;;;;;;4995534;28;20046;-63
2023/07/09 07:02:09;;;;;;;13.93;8.23;;;22.50;62.10;;;;;;4980191;28;20112;-72
2023/07/09 07:04:36;;;;;;;;;;;22.60;61.80;;;;;;4999943;28;20057;-73
2023/07/09 07:07:03;;;;;;;13.30;9.25;;;22.80;61.50;;;;;;4995863;28;20320;-73
2023/07/09 07:09:30;;;;;;;11.75;8.45;;;23.00;61.20;;;;;;4998148;28;20169;-74
2023/07/09 07:11:58;;;;;;;10.52;7.55;;;23.10;61.20;;;;;;4998990;28;20108;-75
2023/07/09 07:14:24;;;;;;;10.45;8.23;;;23.30;60.90;;;;;;4999219;28;20054;-73
2023/07/09 07:16:51;;;;;;;11.38;7.45;;;23.40;60.60;;;;;;4996892;28;20060;-73
2023/07/09 07:19:19;;;;;;;9.27;7.68;;;23.60;60.30;;;;;;4985427;28;20565;-73
2023/07/09 07:21:46;;;;;;;9.98;7.47;;;23.80;60.00;;;;;;4998979;28;20054;-75
2023/07/09 07:24:13;;;;;;;12.85;8.43;;;23.90;59.60;;;;;;4999894;28;20489;-72
2023/07/09 07:26:40;;;;;;;11.02;7.50;;;24.10;59.90;;;;;;5000683;28;20047;-73
2023/07/09 07:29:07;;;;;;;11.18;7.90;;;24.20;59.90;;;;;;5003856;28;20481;-73
2023/07/09 07:31:34;;;;;;;10.38;7.50;;;24.40;60.20;;;;;;5000966;28;20057;-68
2023/07/09 07:34:01;;;;;;;8.80;6.80;;;24.50;59.80;;;;;;5001591;28;20058;-67
2023/07/09 07:36:29;;;;;;;9.52;6.90;;;24.60;58.60;;;;;;5001867;28;20065;-67
2023/07/09 07:38:56;;;;;;;12.45;7.93;;;24.80;58.20;;;;;;5002884;28;20084;-69
2023/07/09 07:41:23;;;;;;;12.88;7.65;;;24.90;58.10;;;;;;5001009;28;20174;-62
2023/07/09 07:43:50;;;;;;;10.10;7.85;;;25.10;57.80;;;;;;5002378;28;20104;-61
2023/07/09 07:46:16;;;;;;;11.52;8.23;;;25.20;57.40;;;;;;5001821;28;20046;-69
2023/07/09 07:48:43;;;;;;;11.77;7.43;;;25.40;56.90;;;;;;4997196;28;20054;-67
2023/07/09 07:51:10;;;;;;;9.10;6.50;;;25.60;56.50;;;;;;5001495;28;20054;-59
2023/07/09 07:53:39;;;;;;;9.20;6.93;;;25.80;55.50;;;;;;5001296;28;20412;-61
2023/07/09 07:56:06;;;;;;;9.20;7.17;;;25.90;54.80;;;;;;5001573;28;20401;-60
2023/07/09 07:58:34;;;;;;;11.85;7.20;;;26.10;54.60;;;;;;5000982;28;20460;-61
2023/07/09 08:01:01;;;;;;;10.93;7.32;;;26.10;54.40;;;;;;4995382;28;20616;-73
2023/07/09 08:03:30;;;;;;;8.90;6.50;;;26.30;54.40;;;;;;4987183;28;20493;-73
2023/07/09 08:05:58;;;;;;;9.88;7.40;;;26.40;53.40;;;;;;4988604;28;20049;-72
2023/07/09 08:08:24;;;;;;;9.45;6.75;;;26.60;53.30;;;;;;5002915;28;20047;-74
2023/07/09 08:11:00;;;;;;;9.02;6.20;;;26.70;53.20;;;;;;5000907;28;20054;-73
2023/07/09 08:13:27;;;;;;;7.75;6.13;;;26.90;52.70;;;;;;5001480;28;20053;-73
2023/07/09 08:15:54;;;;;;;8.95;5.90;;;27.00;52.40;;;;;;5000482;28;20049;-61
2023/07/09 08:18:21;;;;;;;10.05;6.60;;;27.10;52.10;;;;;;4998851;28;20054;-62
2023/07/09 08:20:48;;;;;;;8.70;6.25;;;27.30;52.10;;;;;;5000387;28;20490;-68
2023/07/09 08:23:19;;;;;;;8.23;6.05;;;27.50;52.50;;;;;;5001184;28;20043;-66
2023/07/09 08:25:55;;;;;;;6.95;5.63;;;27.60;51.90;;;;;;5001471;28;20042;-61
2023/07/09 08:28:22;;;;;;;9.68;6.00;;;27.70;51.60;;;;;;4984696;28;20042;-60
2023/07/09 08:30:49;;;;;;;8.43;6.03;;;27.80;51.60;;;;;;4994318;28;20064;-74
2023/07/09 08:33:16;;;;;;;8.77;5.50;;;27.90;51.20;;;;;;4999002;28;20129;-75
2023/07/09 08:35:46;;;;;;;8.48;5.63;;;28.10;50.00;;;;;;4996784;28;20178;-69
2023/07/09 08:38:16;;;;;;;7.95;5.47;;;28.10;50.30;;;;;;4998653;28;20133;-68
2023/07/09 08:40:50;;;;;;;9.32;5.68;;;28.20;50.30;;;;;;4998827;28;20054;-68
2023/07/09 08:43:34;;;;;;;7.45;5.47;;;28.40;49.20;;;;;;4990718;28;20050;-69
2023/07/09 08:46:13;;;;;;;8.15;5.18;;;28.60;48.60;;;;;;5000357;28;20062;-66
2023/07/09 08:51:34;;;;;;;7.10;4.97;;;28.80;48.50;;;;;;4994080;28;20020;-65
2023/07/09 08:54:02;;;;;;;7.55;4.93;;;28.90;48.40;;;;;;5000494;28;20058;-66
2023/07/09 08:56:55;;;;;;;9.30;5.43;;;29.10;47.70;;;;;;4987170;28;20059;-67
2023/07/09 08:59:37;;;;;;;9.23;5.38;;;29.20;47.40;;;;;;4982443;28;20050;-66
2023/07/09 09:02:06;;;;;;;7.32;5.35;;;29.50;47.00;;;;;;4994401;28;20062;-67
2023/07/09 09:04:38;;;;;;;8.90;5.45;;;29.50;47.10;;;;;;4995576;28;20048;-64
2023/07/09 09:07:19;;;;;;;7.07;5.03;;;29.50;46.50;;;;;;4996325;28;20062;-65
2023/07/09 09:09:53;;;;;;;13.80;6.30;;;29.70;46.00;;;;;;4999495;28;20052;-66
2023/07/09 09:12:26;;;;;;;6.72;5.00;;;29.80;46.00;;;;;;4999642;28;20054;-65
2023/07/09 09:14:58;;;;;;;8.75;6.20;;;29.90;45.90;;;;;;4999320;28;20241;-65
2023/07/09 09:17:30;;;;;;;9.02;6.55;;;29.80;45.90;;;;;;4996592;28;20046;-66
2023/07/09 09:20:00;;;;;;;13.43;7.60;;;29.90;45.20;;;;;;4992188;28;20520;-65
2023/07/09 09:22:32;;;;;;;11.18;7.88;;;30.00;45.40;;;;;;4980779;28;20050;-67
2023/07/09 09:25:04;;;;;;;10.68;8.18;;;30.10;45.10;;;;;;4992546;28;20062;-68
2023/07/09 09:27:31;;;;;;;11.98;8.00;;;30.20;44.70;;;;;;4997950;28;20058;-69
2023/07/09 09:30:00;;;;;;;11.45;7.95;;;30.20;44.90;;;;;;4998965;28;20064;-68
2023/07/09 09:32:28;;;;;;;15.02;9.95;;;30.40;44.30;;;;;;4997119;28;20072;-61
2023/07/09 09:34:56;;;;;;;16.33;10.50;;;30.40;44.90;;;;;;4994809;28;20524;-62
2023/07/09 09:37:36;;;;;;;13.50;10.45;;;30.30;44.90;;;;;;4999538;28;20034;-73
2023/07/09 09:40:03;;;;;;;17.40;15.10;;;30.20;44.70;;;;;;4998860;28;20046;-72
2023/07/09 09:42:29;;;;;;;20.23;17.70;;;30.40;44.60;;;;;;4999368;28;20053;-74
2023/07/09 09:44:56;;;;;;;17.40;15.43;;;30.50;44.50;;;;;;5000848;28;20038;-74
2023/07/09 09:47:33;;;;;;;23.67;21.05;;;30.80;44.20;;;;;;4997435;28;20061;-68
2023/07/09 09:49:59;;;;;;;21.95;19.75;;;31.00;43.90;;;;;;4999571;28;20103;-68
2023/07/09 09:52:33;;;;;;;19.05;16.05;;;31.10;44.00;;;;;;4996712;28;20049;-74
2023/07/09 09:55:10;;;;;;;13.30;11.05;;;31.10;43.70;;;;;;4998457;28;20047;-72
2023/07/09 09:57:37;;;;;;;21.45;17.52;;;31.30;43.50;;;;;;4997445;28;20042;-69
2023/07/09 10:00:06;;;;;;;12.65;11.02;;;31.40;43.50;;;;;;4996890;28;20410;-69
2023/07/09 10:02:41;;;;;;;14.98;11.73;;;31.50;42.80;;;;;;4993494;28;20053;-68
2023/07/09 10:05:13;;;;;;;11.68;9.85;;;31.50;43.00;;;;;;4997242;28;20096;-69
2023/07/09 10:07:44;;;;;;;13.10;10.90;;;31.70;42.80;;;;;;4998856;28;20057;-69
2023/07/09 10:10:16;;;;;;;16.20;10.80;;;31.60;42.80;;;;;;4996984;28;20046;-68
2023/07/09 10:12:48;;;;;;;11.75;9.52;;;31.60;42.70;;;;;;4990961;28;20516;-68
2023/07/09 10:15:26;;;;;;;10.32;8.25;;;31.60;42.60;;;;;;4996730;28;20049;-62
2023/07/09 10:18:02;;;;;;;10.63;6.97;;;31.60;42.40;;;;;;4995146;28;20061;-62
2023/07/09 10:20:36;;;;;;;12.75;9.70;;;31.80;41.50;;;;;;4999252;28;20049;-60
2023/07/09 10:23:13;;;;;;;12.13;9.73;;;31.90;41.90;;;;;;4998579;28;20049;-62
2023/07/09 10:25:48;;;;;;;12.52;8.75;;;31.90;42.00;;;;;;4996465;28;20061;-67
2023/07/09 10:28:32;;;;;;;15.55;9.68;;;31.80;41.60;;;;;;4999200;28;20046;-66
2023/07/09 10:31:08;;;;;;;11.48;8.57;;;32.00;41.50;;;;;;4996312;28;20975;-68
2023/07/09 10:33:48;;;;;;;12.13;8.35;;;32.10;41.50;;;;;;4997148;28;20069;-67
2023/07/09 10:36:26;;;;;;;10.43;7.25;;;32.20;41.20;;;;;;4998754;28;20042;-68
2023/07/09 10:38:59;;;;;;;8.65;7.13;;;32.30;40.90;;;;;;4994236;28;20578;-69
2023/07/09 10:41:27;;;;;;;8.88;6.90;;;32.50;40.60;;;;;;4996896;28;20077;-69
2023/07/09 10:44:00;;;;;;;10.40;6.40;;;32.50;40.90;;;;;;4997710;28;20057;-68
2023/07/09 10:46:29;;;;;;;8.77;6.05;;;32.40;40.70;;;;;;4998428;28;20488;-68
2023/07/09 10:49:00;;;;;;;8.55;6.38;;;32.30;40.90;;;;;;4971333;28;20042;-68
2023/07/09 10:51:30;;;;;;;6.97;5.25;;;32.30;40.30;;;;;;4997040;28;20054;-67
2023/07/09 10:54:00;;;;;;;9.90;5.90;;;32.30;40.30;;;;;;4995792;28;20068;-67
2023/07/09 10:56:30;;;;;;;9.00;6.35;;;32.30;40.20;;;;;;4997050;28;20572;-72
2023/07/09 10:59:05;;;;;;;8.95;6.63;;;32.30;40.20;;;;;;4997129;28;20046;-75
2023/07/09 11:01:37;;;;;;;10.50;7.22;;;32.50;40.30;;;;;;4987901;28;20057;-67
2023/07/09 11:04:10;;;;;;;10.27;6.38;;;32.70;40.40;;;;;;4996968;28;20064;-69
2023/07/09 11:06:41;;;;;;;8.25;5.90;;;33.10;39.30;;;;;;4997226;28;20041;-66
2023/07/09 11:09:15;;;;;;;7.85;5.75;;;33.10;39.90;;;;;;4997436;28;20042;-65
2023/07/09 11:11:46;;;;;;;7.45;5.63;;;32.90;39.90;;;;;;4995157;28;20068;-68
2023/07/09 11:14:28;;;;;;;9.85;5.72;;;32.80;39.80;;;;;;4997856;28;20050;-67
2023/07/09 11:16:59;;;;;;;7.63;5.55;;;32.60;39.80;;;;;;4999085;28;20068;-72
2023/07/09 11:19:28;;;;;;;8.05;6.03;;;32.70;39.50;;;;;;4994379;28;20050;-73
2023/07/09 11:22:03;;;;;;;7.43;5.90;;;32.90;39.20;;;;;;4996092;28;20066;-62
2023/07/09 11:24:34;;;;;;;7.72;5.97;;;33.00;39.20;;;;;;4996112;28;20048;-63
2023/07/09 11:27:01;;;;;;;8.73;6.38;;;33.10;39.10;;;;;;4998613;28;20038;-72
2023/07/09 11:29:29;;;;;;;8.15;5.90;;;33.20;39.40;;;;;;4995689;28;20058;-73
2023/07/09 11:31:59;;;;;;;8.13;5.50;;;33.00;39.20;;;;;;4998186;28;20054;-72
2023/07/09 11:34:30;;;;;;;8.02;5.97;;;32.90;39.00;;;;;;4996594;28;20140;-74
2023/07/09 11:36:59;;;;;;;8.00;5.68;;;33.00;39.10;;;;;;4996289;28;20061;-73
2023/07/09 11:39:31;;;;;;;8.00;5.78;;;32.90;39.00;;;;;;4993709;28;20054;-72
2023/07/09 11:42:02;;;;;;;8.35;5.95;;;33.00;38.70;;;;;;4996189;28;20042;-72
2023/07/09 11:44:30;;;;;;;7.53;6.00;;;33.20;38.70;;;;;;4997063;28;20133;-73
2023/07/09 11:47:11;;;;;;;;;;;33.50;37.70;;;;;;4997221;28;20125;-67
2023/07/09 11:49:50;;;;;;;8.60;6.15;;;33.60;38.10;;;;;;4986168;28;20006;-65
2023/07/09 11:52:23;;;;;;;8.90;5.90;;;33.80;37.80;;;;;;4984183;28;20057;-63
2023/07/09 11:54:51;;;;;;;8.93;5.97;;;33.90;38.30;;;;;;4991534;28;20134;-64
2023/07/09 11:57:19;;;;;;;7.90;5.68;;;33.70;38.20;;;;;;4994382;28;20062;-65
2023/07/09 11:59:46;;;;;;;7.05;5.38;;;33.50;38.30;;;;;;4996344;28;20113;-65
2023/07/09 12:02:18;;;;;;;8.55;5.10;;;33.30;38.30;;;;;;4993557;28;20064;-65
2023/07/09 12:04:53;;;;;;;8.57;5.38;;;33.20;38.10;;;;;;4997512;28;20133;-66
2023/07/09 12:07:25;;;;;;;7.82;5.85;;;33.50;37.60;;;;;;4994701;28;20042;-63
2023/07/09 12:09:55;;;;;;;8.05;5.63;;;33.60;38.20;;;;;;4988428;28;20098;-66
2023/07/09 12:12:32;;;;;;;7.80;5.22;;;33.60;38.00;;;;;;4997516;28;20042;-65
2023/07/09 12:15:07;;;;;;;8.57;6.07;;;33.80;37.10;;;;;;5001555;28;20054;-66
2023/07/09 12:17:36;;;;;;;8.73;5.40;;;34.00;37.60;;;;;;4965455;28;20047;-65
2023/07/09 12:20:05;;;;;;;7.22;5.20;;;33.50;38.60;;;;;;4963713;28;20046;-65
2023/07/09 12:22:32;;;;;;;8.82;5.07;;;33.50;38.00;;;;;;4965526;28;20130;-65
2023/07/09 12:25:00;;;;;;;7.30;5.40;;;33.60;37.00;;;;;;4963252;28;20510;-65
2023/07/09 12:27:29;;;;;;;8.07;5.65;;;33.50;38.40;;;;;;4964192;28;20724;-65
2023/07/09 12:29:58;;;;;;;7.68;4.88;;;33.30;38.30;;;;;;4963247;28;20055;-67
2023/07/09 12:32:26;;;;;;;6.97;4.95;;;33.40;38.20;;;;;;4981382;28;20082;-65
2023/07/09 12:34:54;;;;;;;6.65;4.82;;;33.50;37.30;;;;;;4997939;28;20054;-65
2023/07/09 12:37:25;;;;;;;7.00;5.28;;;33.70;38.00;;;;;;4998165;28;20068;-67
2023/07/09 12:39:53;;;;;;;8.07;5.30;;;33.80;37.10;;;;;;4999427;28;20046;-66
2023/07/09 12:42:28;;;;;;;7.22;4.45;;;33.60;37.80;;;;;;4998296;28;20096;-73
2023/07/09 12:44:55;;;;;;;8.10;4.93;;;33.30;38.50;;;;;;4996655;28;20106;-72
2023/07/09 12:47:25;;;;;;;9.07;5.18;;;32.90;38.50;;;;;;4999295;28;20050;-72
2023/07/09 12:50:00;;;;;;;8.52;4.78;;;32.70;38.40;;;;;;5000170;28;20045;-73
2023/07/09 12:52:29;;;;;;;7.45;4.47;;;32.60;38.40;;;;;;4999562;28;20061;-65
2023/07/09 12:54:59;;;;;;;;;;;32.40;38.40;;;;;;4998926;28;20494;-66
2023/07/09 12:57:27;;;;;;;7.55;4.50;;;32.30;38.60;;;;;;4999714;28;19921;-68
2023/07/09 12:59:56;;;;;;;8.63;5.25;;;32.50;39.00;;;;;;4994349;28;20065;-67
2023/07/09 13:02:29;;;;;;;6.75;4.45;;;32.50;38.90;;;;;;4986138;28;20057;-67
2023/07/09 13:05:02;;;;;;;9.30;4.93;;;32.50;38.30;;;;;;4991808;28;20042;-67